Aérodrome :
LOGIN :

S'inscrire | Disclaimer

   EN    FR    IT 

 










Légende :    VFR   VFR Marginal   IFR   IFR Intensif   IFR Très Intensif
Visi : 
Plafond : 
>= 8 km
>= 3000ft
5 à 8 km
1000 à 3000 ft
1500m à 5 km
500 à 1000 ft
800 à 1500m
200 à 500 ft
< 800m
< 200 ft
Symboles :   Orages  Brouillard  Fortes neiges  Fortes précipitations  Vent > 20 kt
SIGMETs :   Divers  Orages  Givrage  Turbulence  Onde Orograph.  Cendres Volcan.







- Altitude de l'aérodrome : 37 ft


EHVL - Vlieland Heliport

DERNIER METAR :
  • 191125Z AUTO 17011KT 4700 -RA BKN022 OVC026 03/02 Q1018 RERA REDZ GRN

METARs EXPIRÉS :
  • 191104Z AUTO 17011KT 5000 DZ OVC025 03/01 Q1018 WHT
  • 191101Z AUTO 17011KT 5000 DZ OVC025 02/01 Q1018 WHT
  • 191055Z AUTO 16011KT 4600 DZ SCT026 SCT030 OVC038 02/02 Q1018 GRN
  • 191039Z AUTO 16011KT 4200 DZ SCT026 OVC030 02/01 Q1018 GRN
  • 191025Z AUTO 17010KT 4100 DZ SCT015 BKN021 OVC025 02/02 Q1018 GRN
  • 190955Z AUTO 18009KT 4500 DZ BKN022 OVC026 03/02 Q1018 GRN
  • 190940Z AUTO 18008KT 4600 -RA BKN023 OVC028 03/02 Q1018 GRN
  • 190925Z AUTO 18009KT 4700 DZRA FEW024 BKN029 OVC033 02/02 Q1018 GRN
  • 190904Z AUTO 18008KT 4800 DZRA OVC029 02/01 Q1018 GRN
  • 190855Z AUTO 18008KT 4400 DZRA OVC028 02/02 Q1018 GRN

Prévision TAF périmée.
Pas de NOTAMs connus pour ce terrain.
1 SIGMET publié pour la FIR Amsterdam (EHAA) :
 
Givrage fort
EHAA SIGMET 1 VALID 190838/191238 EHDB
EHAA AMSTERDAM FIR SEV ICE OBS AT 0830Z W OF LINE N5113 E00352 - N5500 E00500 FL150/200 STNR NC=



MET'MAP, la Météo Aéronautique d'un coup d'oeil ! - Copyright ORBIFLY Décembre 2007 - Disclaimer

ORBIFLY MET'MAP TEAM :

Programmation & Développement : Alexandra Zaïnal
Conception & Développement : Baudouin d'Aumeries
Co-Programmation & Développement : Marc-Olivier Méhu
Soutien technique & logistique : Manuel Goepfert

Contact : metmap@orbifly.com




SOURCES & CREDITS :

   NOAA